createdAt,value
2023-04-22T00:01:42.632Z,100831.97
2023-04-22T00:04:11.408Z,100828.47
2023-04-22T00:06:41.058Z,100823.47
2023-04-22T00:09:09.647Z,100833.31
2023-04-22T00:11:37.587Z,100816.75
2023-04-22T00:14:06.079Z,100824.94
2023-04-22T00:16:34.082Z,100827.13
2023-04-22T00:19:02.105Z,100830.97
2023-04-22T00:21:30.149Z,100823.44
2023-04-22T00:23:59.481Z,100818.53
2023-04-22T00:26:27.436Z,100811.84
2023-04-22T00:28:55.384Z,100800.56
2023-04-22T00:31:23.476Z,100805.91
2023-04-22T00:33:51.441Z,100812.19
2023-04-22T00:36:19.448Z,100796.72
2023-04-22T00:38:49.482Z,100798.63
2023-04-22T00:41:18.818Z,100785.69
2023-04-22T00:43:46.718Z,100789.31
2023-04-22T00:46:15.259Z,100782.34
2023-04-22T00:48:43.291Z,100777.34
2023-04-22T00:51:11.374Z,100774.81
2023-04-22T00:53:39.347Z,100753.81
2023-04-22T00:56:07.902Z,100766.28
2023-04-22T00:58:37.237Z,100767.00
2023-04-22T01:01:05.451Z,100760.06
2023-04-22T01:03:33.841Z,100746.13
2023-04-22T01:06:01.869Z,100756.69
2023-04-22T01:08:29.967Z,100749.50
2023-04-22T01:10:58.084Z,100754.78
2023-04-22T01:13:26.079Z,100746.13
2023-04-22T01:15:55.784Z,100750.44
2023-04-22T01:18:23.935Z,100746.84
2023-04-22T01:20:52.065Z,100748.66
2023-04-22T01:23:21.948Z,100744.22
2023-04-22T01:25:50.025Z,100744.94
2023-04-22T01:28:18.193Z,100742.03
2023-04-22T01:30:46.169Z,100744.53
2023-04-22T01:33:14.195Z,100745.38
2023-04-22T01:35:42.254Z,100738.44
2023-04-22T01:38:11.142Z,100742.63
2023-04-22T01:40:42.049Z,100750.16
2023-04-22T01:43:09.998Z,100747.38
2023-04-22T01:45:38.092Z,100746.06
2023-04-22T01:48:07.406Z,100745.72
2023-04-22T01:50:35.528Z,100748.06
2023-04-22T01:53:03.526Z,100741.72
2023-04-22T01:55:36.075Z,100735.19
2023-04-22T01:58:05.721Z,100735.47
2023-04-22T02:00:33.896Z,100735.00
2023-04-22T02:03:02.061Z,100726.88
2023-04-22T02:05:30.278Z,100723.31
2023-04-22T02:07:58.542Z,100724.78
2023-04-22T02:10:26.685Z,100724.19
2023-04-22T02:12:54.601Z,100726.69
2023-04-22T02:15:24.034Z,100731.03
2023-04-22T02:17:55.355Z,100722.84
2023-04-22T02:20:23.554Z,100733.41
2023-04-22T02:22:51.687Z,100720.59
2023-04-22T02:25:21.242Z,100718.09
2023-04-22T02:27:51.253Z,100726.97
2023-04-22T02:30:19.296Z,100724.34
2023-04-22T02:32:48.651Z,100711.13
2023-04-22T02:35:16.588Z,100723.81
2023-04-22T02:37:44.636Z,100711.34
2023-04-22T02:40:13.343Z,100710.50
2023-04-22T02:42:41.329Z,100712.31
2023-04-22T02:45:10.157Z,100705.59
2023-04-22T02:47:38.775Z,100698.91
2023-04-22T02:50:09.734Z,100699.84
2023-04-22T02:52:37.866Z,100704.19
2023-04-22T02:55:06.491Z,100698.91
2023-04-22T02:57:34.517Z,100701.66
2023-04-22T03:00:04.300Z,100706.09
2023-04-22T03:02:32.533Z,100699.97
2023-04-22T03:05:11.575Z,100702.06
2023-04-22T03:07:39.983Z,100690.91
2023-04-22T03:10:09.361Z,100691.41
2023-04-22T03:12:37.302Z,100689.84
2023-04-22T03:15:06.105Z,100685.09
2023-04-22T03:17:34.777Z,100682.56
2023-04-22T03:20:07.742Z,100681.72
2023-04-22T03:22:37.162Z,100672.84
2023-04-22T03:25:07.157Z,100676.72
2023-04-22T03:27:35.502Z,100668.59
2023-04-22T03:30:03.531Z,100669.09
2023-04-22T03:32:31.556Z,100663.72
2023-04-22T03:35:21.686Z,100664.84
2023-04-22T03:37:52.869Z,100660.19
2023-04-22T03:40:27.254Z,100650.97
2023-04-22T03:42:55.622Z,100656.97
2023-04-22T03:45:23.862Z,100662.69
2023-04-22T03:48:04.010Z,100651.78
2023-04-22T03:50:40.006Z,100661.13
2023-04-22T03:53:09.916Z,100644.94
2023-04-22T03:55:39.323Z,100648.28
2023-04-22T03:58:07.479Z,100640.00
2023-04-22T04:00:35.812Z,100643.59
2023-04-22T04:03:10.444Z,100635.09
2023-04-22T04:05:38.744Z,100634.66
2023-04-22T04:08:06.837Z,100627.81
2023-04-22T04:10:37.200Z,100637.53
2023-04-22T04:13:06.028Z,100628.66
2023-04-22T04:15:42.944Z,100632.00
2023-04-22T04:18:11.676Z,100627.31
2023-04-22T04:20:39.834Z,100626.25
2023-04-22T04:23:08.293Z,100623.34
2023-04-22T04:25:39.113Z,100626.81
2023-04-22T04:28:12.070Z,100621.53
2023-04-22T04:30:41.703Z,100618.78
2023-04-22T04:33:10.169Z,100619.63
2023-04-22T04:35:39.727Z,100609.91
2023-04-22T04:38:09.332Z,100604.50
2023-04-22T04:40:39.278Z,100607.00
2023-04-22T04:43:12.922Z,100604.97
2023-04-22T04:45:48.878Z,100602.22
2023-04-22T04:48:24.979Z,100600.25
2023-04-22T04:50:56.674Z,100598.84
2023-04-22T04:53:27.417Z,100597.16
2023-04-22T04:55:57.855Z,100598.84
2023-04-22T04:58:28.192Z,100589.72
2023-04-22T05:01:09.248Z,100586.72
2023-04-22T05:03:37.538Z,100582.28
2023-04-22T05:06:07.994Z,100585.16
2023-04-22T05:08:38.182Z,100586.94
2023-04-22T05:11:11.349Z,100589.59
2023-04-22T05:13:39.500Z,100578.91
2023-04-22T05:16:10.155Z,100576.72
2023-04-22T05:18:40.213Z,100574.56
2023-04-22T05:21:10.299Z,100576.69
2023-04-22T05:23:38.372Z,100578.78
2023-04-22T05:26:07.528Z,100568.97
2023-04-22T05:28:38.778Z,100566.31
2023-04-22T05:31:06.868Z,100575.63
2023-04-22T05:33:35.006Z,100571.91
2023-04-22T05:36:03.070Z,100571.50
2023-04-22T05:38:31.018Z,100565.53
2023-04-22T05:40:59.072Z,100579.72
2023-04-22T05:43:27.111Z,100574.44
2023-04-22T05:46:03.539Z,100581.09
2023-04-22T05:48:32.757Z,100573.63
2023-04-22T05:51:04.498Z,100562.81
2023-04-22T05:53:32.438Z,100560.91
2023-04-22T05:56:02.398Z,100558.94
2023-04-22T05:58:30.367Z,100563.53
2023-04-22T06:01:09.164Z,100562.81
2023-04-22T06:04:00.749Z,100566.13
2023-04-22T06:06:29.663Z,100559.56
2023-04-22T06:08:58.039Z,100565.91
2023-04-22T06:11:26.039Z,100566.03
2023-04-22T06:13:55.050Z,100561.47
2023-04-22T06:16:24.773Z,100563.88
2023-04-22T06:18:52.757Z,100570.94
2023-04-22T06:21:23.427Z,100570.78
2023-04-22T06:23:51.398Z,100571.50
2023-04-22T06:26:19.399Z,100569.47
2023-04-22T06:28:47.351Z,100564.75
2023-04-22T06:31:21.027Z,100564.50
2023-04-22T06:33:50.940Z,100569.25
2023-04-22T06:36:20.259Z,100577.59
2023-04-22T06:38:54.485Z,100578.78
2023-04-22T06:41:34.551Z,100578.97
2023-04-22T06:44:09.724Z,100572.44
2023-04-22T06:46:54.708Z,100593.91
2023-04-22T06:49:45.058Z,100578.34
2023-04-22T06:52:27.757Z,100581.72
2023-04-22T06:54:58.603Z,100589.25
2023-04-22T06:57:26.669Z,100586.25
2023-04-22T06:59:54.616Z,100572.09
2023-04-22T07:02:23.799Z,100582.25
2023-04-22T07:04:53.544Z,100571.53
2023-04-22T07:07:21.786Z,100575.72
2023-04-22T07:09:50.293Z,100570.16
2023-04-22T07:12:18.233Z,100567.22
2023-04-22T07:14:46.440Z,100559.81
2023-04-22T07:17:14.487Z,100563.72
2023-04-22T07:19:42.476Z,100562.56
2023-04-22T07:22:12.253Z,100561.44
2023-04-22T07:24:41.052Z,100554.66
2023-04-22T07:27:08.965Z,100556.88
2023-04-22T07:29:37.115Z,100559.03
2023-04-22T07:32:05.410Z,100548.78
2023-04-22T07:34:33.690Z,100542.97
2023-04-22T07:37:01.685Z,100541.75
2023-04-22T07:39:31.062Z,100536.06
2023-04-22T07:41:59.202Z,100529.88
2023-04-22T07:44:27.223Z,100523.50
2023-04-22T07:46:55.610Z,100526.38
2023-04-22T07:49:24.097Z,100525.47
2023-04-22T07:51:52.355Z,100523.16
2023-04-22T07:54:20.606Z,100533.84
2023-04-22T07:56:49.971Z,100535.22
2023-04-22T07:59:17.984Z,100533.91
2023-04-22T08:01:47.127Z,100529.16
2023-04-22T08:04:15.406Z,100529.34
2023-04-22T08:06:43.655Z,100518.41
2023-04-22T08:09:11.607Z,100524.03
2023-04-22T08:11:39.661Z,100515.72
2023-04-22T08:14:09.082Z,100519.34
2023-04-22T08:16:36.999Z,100513.72
2023-04-22T08:19:05.131Z,100516.75
2023-04-22T08:21:33.135Z,100516.13
2023-04-22T08:24:01.127Z,100509.84
2023-04-22T08:26:29.105Z,100514.56
2023-04-22T08:28:57.124Z,100515.25
2023-04-22T08:31:26.480Z,100517.66
2023-04-22T08:33:54.656Z,100514.06
2023-04-22T08:36:25.822Z,100501.84
2023-04-22T08:38:54.659Z,100503.59
2023-04-22T08:41:24.519Z,100498.63
2023-04-22T08:43:52.616Z,100500.97
2023-04-22T08:46:21.091Z,100499.63
2023-04-22T08:48:50.546Z,100502.47
2023-04-22T08:51:18.984Z,100498.84
2023-04-22T08:53:47.072Z,100500.97
2023-04-22T08:56:37.303Z,100491.59
2023-04-22T08:59:07.153Z,100497.28
2023-04-22T09:01:36.417Z,100493.41
2023-04-22T09:04:05.940Z,100489.28
2023-04-22T09:06:34.394Z,100488.28
2023-04-22T09:09:02.457Z,100475.97
2023-04-22T09:11:32.734Z,100478.94
2023-04-22T09:14:00.705Z,100475.28
2023-04-22T09:16:29.875Z,100489.91
2023-04-22T09:18:58.247Z,100476.78
2023-04-22T09:21:28.826Z,100472.97
2023-04-22T09:23:57.626Z,100478.16
2023-04-22T09:26:26.904Z,100479.00
2023-04-22T09:28:56.016Z,100468.84
2023-04-22T09:31:24.124Z,100474.03
2023-04-22T09:33:53.375Z,100475.19
2023-04-22T09:36:25.136Z,100476.66
2023-04-22T09:38:56.134Z,100490.16
2023-04-22T09:41:30.751Z,100482.69
2023-04-22T09:43:59.019Z,100483.34
2023-04-22T09:46:28.349Z,100490.50
2023-04-22T09:48:57.578Z,100489.66
2023-04-22T09:51:25.665Z,100482.69
2023-04-22T09:54:08.776Z,100485.34
2023-04-22T09:56:45.171Z,100485.00
2023-04-22T09:59:13.734Z,100486.00
2023-04-22T10:01:44.531Z,100482.69
2023-04-22T10:04:15.472Z,100480.66
2023-04-22T10:06:44.372Z,100486.34
2023-04-22T10:09:24.960Z,100485.00
2023-04-22T10:11:55.849Z,100488.03
2023-04-22T10:14:24.160Z,100485.34
2023-04-22T10:16:56.490Z,100485.34
2023-04-22T10:19:26.119Z,100487.66
2023-04-22T10:21:55.823Z,100490.66
2023-04-22T10:24:26.970Z,100485.19
2023-04-22T10:26:57.698Z,100476.72
2023-04-22T10:29:26.616Z,100481.69
2023-04-22T10:31:57.239Z,100472.69
2023-04-22T10:34:25.530Z,100485.50
2023-04-22T10:36:57.591Z,100476.34
2023-04-22T10:39:27.469Z,100474.38
2023-04-22T10:42:07.389Z,100471.66
2023-04-22T10:44:47.617Z,100477.69
2023-04-22T10:47:26.174Z,100472.69
2023-04-22T10:50:09.832Z,100466.03
2023-04-22T10:52:38.206Z,100468.69
2023-04-22T10:55:07.909Z,100454.50
2023-04-22T10:57:40.169Z,100457.63
2023-04-22T11:00:28.035Z,100460.94
2023-04-22T11:03:18.779Z,100457.19
2023-04-22T11:05:48.225Z,100468.84
2023-04-22T11:08:20.628Z,100459.50
2023-04-22T11:10:50.907Z,100464.47
2023-04-22T11:13:21.080Z,100466.50
2023-04-22T11:15:50.121Z,100465.16
2023-04-22T11:18:22.111Z,100460.66
2023-04-22T11:20:50.777Z,100457.66
2023-04-22T11:23:20.687Z,100462.47
2023-04-22T11:25:54.708Z,100464.13
2023-04-22T11:28:23.506Z,100455.47
2023-04-22T11:30:51.469Z,100457.00
2023-04-22T11:33:20.071Z,100461.50
2023-04-22T11:35:50.484Z,100453.19
2023-04-22T11:38:18.799Z,100451.53
2023-04-22T11:40:47.418Z,100454.38
2023-04-22T11:43:18.645Z,100452.88
2023-04-22T11:45:46.789Z,100447.25
2023-04-22T11:48:15.621Z,100443.91
2023-04-22T11:50:44.699Z,100446.56
2023-04-22T11:53:16.696Z,100445.56
2023-04-22T11:55:45.364Z,100439.25
2023-04-22T11:58:15.408Z,100443.91
2023-04-22T12:00:45.482Z,100432.78
2023-04-22T12:03:15.625Z,100433.31
2023-04-22T12:05:44.524Z,100424.81
2023-04-22T12:08:13.420Z,100434.63
2023-04-22T12:10:42.708Z,100432.81
2023-04-22T12:13:10.958Z,100432.28
2023-04-22T12:15:44.230Z,100431.94
2023-04-22T12:18:13.226Z,100435.59
2023-04-22T12:20:42.011Z,100442.13
2023-04-22T12:23:14.870Z,100441.81
2023-04-22T12:25:43.055Z,100445.19
2023-04-22T12:28:11.973Z,100438.91
2023-04-22T12:30:40.040Z,100437.06
2023-04-22T12:33:10.243Z,100441.75
2023-04-22T12:35:38.183Z,100439.09
2023-04-22T12:38:06.151Z,100443.38
2023-04-22T12:40:34.122Z,100434.41
2023-04-22T12:43:05.941Z,100432.88
2023-04-22T12:45:35.287Z,100429.06
2023-04-22T12:48:03.229Z,100437.69
2023-04-22T12:50:32.603Z,100428.34
2023-04-22T12:53:00.695Z,100424.34
2023-04-22T12:55:28.928Z,100424.50
2023-04-22T12:57:57.087Z,100432.97
2023-04-22T13:00:25.516Z,100424.66
2023-04-22T13:02:54.224Z,100418.28
2023-04-22T13:05:24.509Z,100411.88
2023-04-22T13:08:05.852Z,100418.84
2023-04-22T13:10:35.021Z,100418.78
2023-04-22T13:13:17.099Z,100416.00
2023-04-22T13:15:47.229Z,100415.63
2023-04-22T13:18:16.531Z,100416.44
2023-04-22T13:20:44.549Z,100416.78
2023-04-22T13:23:15.550Z,100412.13
2023-04-22T13:25:43.633Z,100410.00
2023-04-22T13:28:12.382Z,100412.00
2023-04-22T13:30:43.118Z,100398.72
2023-04-22T13:33:11.238Z,100398.91
2023-04-22T13:35:43.443Z,100393.75
2023-04-22T13:38:11.758Z,100386.06
2023-04-22T13:40:41.466Z,100387.88
2023-04-22T13:43:09.806Z,100385.22
2023-04-22T13:45:38.111Z,100377.78
2023-04-22T13:48:07.697Z,100374.09
2023-04-22T13:50:36.078Z,100372.94
2023-04-22T13:53:05.164Z,100376.81
2023-04-22T13:55:33.519Z,100380.81
2023-04-22T13:58:03.250Z,100383.19
2023-04-22T14:00:32.094Z,100374.53
2023-04-22T14:03:02.385Z,100364.00
2023-04-22T14:05:30.825Z,100365.78
2023-04-22T14:08:01.173Z,100372.91
2023-04-22T14:10:29.310Z,100362.34
2023-04-22T14:12:57.728Z,100362.66
2023-04-22T14:15:27.123Z,100366.66
2023-04-22T14:17:55.123Z,100366.09
2023-04-22T14:20:25.285Z,100358.59
2023-04-22T14:22:53.439Z,100363.94
2023-04-22T14:25:21.525Z,100347.81
2023-04-22T14:27:49.568Z,100351.31
2023-04-22T14:30:18.004Z,100349.31
2023-04-22T14:32:47.343Z,100343.84
2023-04-22T14:35:15.620Z,100347.06
2023-04-22T14:37:45.058Z,100354.78
2023-04-22T14:40:13.551Z,100342.16
2023-04-22T14:42:41.636Z,100351.81
2023-04-22T14:45:11.002Z,100338.66
2023-04-22T14:47:39.184Z,100341.94
2023-04-22T14:50:09.823Z,100334.78
2023-04-22T14:52:37.819Z,100333.78
2023-04-22T14:55:19.595Z,100330.78
2023-04-22T14:57:51.049Z,100336.28
2023-04-22T15:00:19.620Z,100332.78
2023-04-22T15:02:47.730Z,100326.44
2023-04-22T15:05:17.114Z,100330.94
2023-04-22T15:07:45.198Z,100319.44
2023-04-22T15:10:18.100Z,100329.28
2023-04-22T15:12:46.410Z,100314.59
2023-04-22T15:15:16.170Z,100319.72
2023-04-22T15:17:44.615Z,100310.09
2023-04-22T15:20:14.892Z,100309.44
2023-04-22T15:22:47.236Z,100303.81
2023-04-22T15:25:17.932Z,100302.88
2023-04-22T15:27:47.019Z,100302.72
2023-04-22T15:30:15.156Z,100298.00
2023-04-22T15:32:43.370Z,100296.75
2023-04-22T15:35:12.011Z,100288.25
2023-04-22T15:37:40.331Z,100292.47
2023-04-22T15:40:11.547Z,100300.34
2023-04-22T15:42:40.077Z,100288.19
2023-04-22T15:45:09.060Z,100287.53
2023-04-22T15:47:37.324Z,100287.84
2023-04-22T15:50:09.491Z,100274.19
2023-04-22T15:52:38.523Z,100274.47
2023-04-22T15:55:08.024Z,100278.44
2023-04-22T15:57:37.579Z,100264.13
2023-04-22T16:00:13.449Z,100255.94
2023-04-22T16:02:42.386Z,100261.28
2023-04-22T16:05:11.466Z,100263.94
2023-04-22T16:07:40.756Z,100254.47
2023-04-22T16:10:10.160Z,100259.16
2023-04-22T16:12:39.678Z,100255.47
2023-04-22T16:15:10.139Z,100252.34
2023-04-22T16:17:38.336Z,100251.50
2023-04-22T16:20:08.487Z,100252.22
2023-04-22T16:22:37.552Z,100253.56
2023-04-22T16:25:06.381Z,100243.25
2023-04-22T16:27:34.577Z,100247.94
2023-04-22T16:30:04.266Z,100242.16
2023-04-22T16:32:32.239Z,100252.97
2023-04-22T16:35:00.253Z,100238.53
2023-04-22T16:37:28.249Z,100238.03
2023-04-22T16:39:56.700Z,100230.56
2023-04-22T16:42:24.695Z,100237.88
2023-04-22T16:44:52.669Z,100228.09
2023-04-22T16:47:22.420Z,100226.38
2023-04-22T16:49:51.345Z,100221.06
2023-04-22T16:52:19.449Z,100217.72
2023-04-22T16:54:47.378Z,100211.59
2023-04-22T16:57:15.549Z,100202.75
2023-04-22T16:59:43.450Z,100200.09
2023-04-22T17:02:11.408Z,100201.59
2023-04-22T17:04:40.803Z,100200.94
2023-04-22T17:07:08.766Z,100198.09
2023-04-22T17:09:36.682Z,100198.25
2023-04-22T17:12:04.904Z,100188.97
2023-04-22T17:14:32.832Z,100181.53
2023-04-22T17:17:00.752Z,100190.81
2023-04-22T17:19:28.845Z,100185.66
2023-04-22T17:21:58.169Z,100184.19
2023-04-22T17:24:26.099Z,100181.16
2023-04-22T17:26:54.023Z,100184.66
2023-04-22T17:29:23.224Z,100188.50
2023-04-22T17:31:54.570Z,100175.38
2023-04-22T17:34:22.521Z,100175.19
2023-04-22T17:36:50.448Z,100163.53
2023-04-22T17:39:19.735Z,100165.56
2023-04-22T17:41:47.704Z,100162.56
2023-04-22T17:44:15.622Z,100156.41
2023-04-22T17:46:43.826Z,100155.59
2023-04-22T17:49:11.786Z,100153.13
2023-04-22T17:51:39.728Z,100150.63
2023-04-22T17:54:07.711Z,100152.63
2023-04-22T17:56:37.095Z,100155.13
2023-04-22T17:59:05.007Z,100142.00
2023-04-22T18:01:32.980Z,100145.66
2023-04-22T18:04:01.137Z,100137.03
2023-04-22T18:06:29.263Z,100133.72
2023-04-22T18:08:57.254Z,100131.72
2023-04-22T18:11:25.204Z,100123.91
2023-04-22T18:13:54.514Z,100118.75
2023-04-22T18:16:22.711Z,100120.91
2023-04-22T18:18:50.714Z,100122.94
2023-04-22T18:21:19.400Z,100122.94
2023-04-22T18:23:56.488Z,100113.13
2023-04-22T18:26:24.537Z,100118.44
2023-04-22T18:28:52.604Z,100123.78
2023-04-22T18:31:22.222Z,100109.47
2023-04-22T18:33:50.239Z,100111.75
2023-04-22T18:36:18.535Z,100114.72
2023-04-22T18:38:46.544Z,100118.19
2023-04-22T18:41:14.744Z,100113.38
2023-04-22T18:43:42.680Z,100111.72
2023-04-22T18:46:10.817Z,100101.06
2023-04-22T18:48:41.761Z,100104.72
2023-04-22T18:51:09.858Z,100105.38
2023-04-22T18:53:37.793Z,100101.91
2023-04-22T18:56:06.842Z,100101.06
2023-04-22T18:58:34.775Z,100095.28
2023-04-22T19:01:02.776Z,100103.78
2023-04-22T19:03:30.960Z,100096.50
2023-04-22T19:06:00.460Z,100094.19
2023-04-22T19:08:28.648Z,100089.22
2023-04-22T19:10:58.216Z,100091.22
2023-04-22T19:13:29.743Z,100085.91
2023-04-22T19:15:58.570Z,100083.41
2023-04-22T19:18:26.667Z,100085.25
2023-04-22T19:20:54.599Z,100096.53
2023-04-22T19:23:24.108Z,100084.59
2023-04-22T19:25:52.068Z,100086.28
2023-04-22T19:28:19.989Z,100090.94
2023-04-22T19:30:48.256Z,100095.13
2023-04-22T19:33:16.362Z,100085.69
2023-04-22T19:35:44.334Z,100099.28
2023-04-22T19:38:16.186Z,100098.66
2023-04-22T19:40:45.525Z,100102.31
2023-04-22T19:43:13.548Z,100100.66
2023-04-22T19:45:41.453Z,100091.00
2023-04-22T19:48:10.175Z,100092.00
2023-04-22T19:50:38.592Z,100094.81
2023-04-22T19:53:06.927Z,100099.31
2023-04-22T19:55:36.156Z,100103.16
2023-04-22T19:58:05.697Z,100106.00
2023-04-22T20:00:34.895Z,100100.84
2023-04-22T20:03:04.243Z,100097.56
2023-04-22T20:05:33.037Z,100104.88
2023-04-22T20:08:01.764Z,100104.03
2023-04-22T20:10:30.129Z,100106.53
2023-04-22T20:12:58.464Z,100109.34
2023-04-22T20:15:28.071Z,100101.53
2023-04-22T20:17:56.436Z,100100.72
2023-04-22T20:20:24.670Z,100105.56
2023-04-22T20:22:53.230Z,100106.38
2023-04-22T20:25:21.377Z,100099.03
2023-04-22T20:27:50.383Z,100107.03
2023-04-22T20:30:18.976Z,100105.19
2023-04-22T20:32:48.670Z,100106.03
2023-04-22T20:35:17.221Z,100100.53
2023-04-22T20:37:46.246Z,100106.69
2023-04-22T20:40:15.242Z,100102.38
2023-04-22T20:42:43.357Z,100103.19
2023-04-22T20:45:15.623Z,100102.38
2023-04-22T20:47:44.189Z,100101.38
2023-04-22T20:50:14.698Z,100097.22
2023-04-22T20:52:43.304Z,100092.44
2023-04-22T20:55:11.376Z,100095.63
2023-04-22T20:57:39.321Z,100088.31
2023-04-22T21:00:10.224Z,100093.16
2023-04-22T21:02:38.482Z,100103.13
2023-04-22T21:05:07.760Z,100105.09
2023-04-22T21:07:37.438Z,100108.78
2023-04-22T21:10:06.339Z,100105.47
2023-04-22T21:12:34.936Z,100116.78
2023-04-22T21:15:03.730Z,100105.09
2023-04-22T21:17:32.343Z,100120.72
2023-04-22T21:20:00.325Z,100113.41
2023-04-22T21:22:28.426Z,100109.75
2023-04-22T21:24:57.886Z,100109.75
2023-04-22T21:27:26.372Z,100115.38
2023-04-22T21:29:55.294Z,100120.03
2023-04-22T21:32:23.396Z,100121.69
2023-04-22T21:34:51.420Z,100118.03
2023-04-22T21:37:19.384Z,100120.34
2023-04-22T21:39:47.346Z,100113.03
2023-04-22T21:42:16.671Z,100115.69
2023-04-22T21:44:49.766Z,100116.38
2023-04-22T21:47:18.120Z,100125.16
2023-04-22T21:49:47.112Z,100123.34
2023-04-22T21:52:15.310Z,100123.34
2023-04-22T21:54:43.449Z,100118.72
2023-04-22T21:57:11.677Z,100120.03
2023-04-22T21:59:41.011Z,100118.06
2023-04-22T22:02:09.028Z,100114.75
2023-04-22T22:04:37.027Z,100119.44
2023-04-22T22:07:04.992Z,100119.75
2023-04-22T22:09:32.994Z,100116.44
2023-04-22T22:12:01.523Z,100110.78
2023-04-22T22:14:29.398Z,100123.06
2023-04-22T22:16:59.140Z,100121.41
2023-04-22T22:19:28.425Z,100123.91
2023-04-22T22:21:56.320Z,100132.72
2023-04-22T22:24:24.257Z,100125.22
2023-04-22T22:26:52.224Z,100142.34
2023-04-22T22:29:20.252Z,100141.00
2023-04-22T22:31:48.191Z,100145.84
2023-04-22T22:34:17.580Z,100141.53
2023-04-22T22:36:45.566Z,100157.78
2023-04-22T22:39:15.976Z,100152.66
2023-04-22T22:41:44.234Z,100142.06
2023-04-22T22:44:12.312Z,100150.84
2023-04-22T22:46:41.100Z,100157.97
2023-04-22T22:49:09.043Z,100158.63
2023-04-22T22:51:38.497Z,100160.13
2023-04-22T22:54:06.853Z,100159.13
2023-04-22T22:56:34.974Z,100161.13
2023-04-22T22:59:03.301Z,100163.25
2023-04-22T23:01:31.283Z,100165.28
2023-04-22T23:03:59.656Z,100161.97
2023-04-22T23:06:28.230Z,100152.94
2023-04-22T23:08:57.550Z,100166.09
2023-04-22T23:11:25.690Z,100159.25
2023-04-22T23:13:53.673Z,100149.78
2023-04-22T23:16:22.268Z,100145.31
2023-04-22T23:18:50.246Z,100149.94
2023-04-22T23:21:18.216Z,100157.63
2023-04-22T23:23:46.208Z,100156.78
2023-04-22T23:26:16.055Z,100163.72
2023-04-22T23:28:44.487Z,100159.25
2023-04-22T23:31:12.487Z,100155.44
2023-04-22T23:33:41.900Z,100149.31
2023-04-22T23:36:10.510Z,100158.59
2023-04-22T23:38:38.414Z,100156.94
2023-04-22T23:41:06.478Z,100157.47
2023-04-22T23:43:35.762Z,100157.31
2023-04-22T23:46:03.918Z,100164.28
2023-04-22T23:48:31.866Z,100164.44
2023-04-22T23:50:59.838Z,100159.13
2023-04-22T23:53:27.943Z,100157.47
2023-04-22T23:55:56.664Z,100155.28
2023-04-22T23:58:25.034Z,100160.44
